Terminal Aerodrome Forecast
Issued by NWS Twin Cities, MN

Home | Current Version | Previous Version | Text Only | Print | Product List | Glossary Off
Versions: 1 2 3 4 5 6 7 8 9 10 11 12 13 14 15 16 17

000
FTUS43 KMPX 300800 AAA
TAFEAU
TAF AMD
KEAU 300834Z 3009/3106 30004KT 1 1/2SM BR BKN002
      TEMPO 3009/3012 1/2SM FG VV002
     FM301500 32009KT P6SM SCT050
     FM310100 30003KT P6SM SKC=

USA.gov is the U.S. government's official web portal to all federal, state and local government web resources and services.